createdAt,value
2018-06-01T00:04:21.707Z,6.90
2018-06-01T00:09:24.970Z,6.40
2018-06-01T00:14:28.239Z,7.53
2018-06-01T00:19:31.487Z,7.63
2018-06-01T00:24:34.758Z,11.40
2018-06-01T00:29:38.259Z,7.23
2018-06-01T00:34:41.509Z,7.43
2018-06-01T00:39:44.780Z,7.90
2018-06-01T00:44:48.048Z,9.27
2018-06-01T00:49:51.318Z,7.77
2018-06-01T00:55:06.387Z,7.63
2018-06-01T01:00:09.649Z,7.77
2018-06-01T01:05:12.898Z,7.27
2018-06-01T01:10:16.151Z,7.63
2018-06-01T01:15:19.410Z,7.67
2018-06-01T01:20:22.673Z,7.70
2018-06-01T01:25:25.931Z,7.63
2018-06-01T01:30:29.221Z,7.37
2018-06-01T01:35:33.248Z,8.20
2018-06-01T01:40:37.286Z,12.20
2018-06-01T01:45:40.552Z,8.63
2018-06-01T01:50:43.819Z,8.57
2018-06-01T01:55:47.086Z,8.67
2018-06-01T02:00:51.118Z,8.47
2018-06-01T02:05:55.127Z,8.73
2018-06-01T02:10:58.386Z,9.27
2018-06-01T02:16:01.641Z,7.73
2018-06-01T02:21:04.908Z,8.97
2018-06-01T02:26:08.167Z,8.70
2018-06-01T02:31:11.675Z,9.03
2018-06-01T02:36:14.940Z,11.77
2018-06-01T02:41:18.207Z,9.60
2018-06-01T02:46:21.488Z,10.17
2018-06-01T02:51:24.757Z,10.03
2018-06-01T02:56:28.015Z,15.30
2018-06-01T03:01:32.065Z,9.63
2018-06-01T03:06:58.795Z,9.10
2018-06-01T03:12:02.950Z,9.07
2018-06-01T03:17:06.959Z,9.77
2018-06-01T03:22:10.211Z,9.63
2018-06-01T03:27:13.486Z,10.83
2018-06-01T03:32:16.875Z,10.50
2018-06-01T03:37:20.132Z,9.03
2018-06-01T03:42:23.400Z,9.80
2018-06-01T03:47:26.659Z,10.33
2018-06-01T03:52:29.920Z,9.50
2018-06-01T03:57:33.175Z,15.63
2018-06-01T04:02:36.450Z,15.47
2018-06-01T04:07:40.472Z,13.70
2018-06-01T04:12:43.739Z,28.83
2018-06-01T04:17:46.999Z,15.90
2018-06-01T04:22:50.259Z,15.90
2018-06-01T04:27:53.534Z,19.93
2018-06-01T04:32:58.832Z,12.63
2018-06-01T04:38:02.068Z,24.27
2018-06-01T04:43:06.107Z,11.77
2018-06-01T04:48:09.369Z,16.00
2018-06-01T04:53:14.355Z,13.23
2018-06-01T04:58:17.612Z,12.17
2018-06-01T05:03:20.866Z,12.57
2018-06-01T05:08:24.891Z,34.43
2018-06-01T05:13:28.924Z,37.40
2018-06-01T05:18:32.942Z,35.30
2018-06-01T05:23:36.212Z,47.17
2018-06-01T05:28:41.155Z,45.83
2018-06-01T05:33:44.438Z,47.07
2018-06-01T05:38:47.686Z,45.00
2018-06-01T05:43:51.746Z,45.73
2018-06-01T05:48:55.003Z,35.00
2018-06-01T05:53:59.434Z,41.50
2018-06-01T05:59:02.700Z,21.73
2018-06-01T06:04:05.959Z,25.23
2018-06-01T06:09:09.231Z,28.90
2018-06-01T06:14:12.501Z,18.23
2018-06-01T06:19:15.816Z,19.23
2018-06-01T06:24:19.850Z,34.43
2018-06-01T06:29:23.107Z,30.53
2018-06-01T06:34:26.386Z,17.47
2018-06-01T06:39:29.643Z,17.13
2018-06-01T06:44:32.937Z,16.47
2018-06-01T06:49:36.210Z,15.87
2018-06-01T06:54:40.231Z,19.10
2018-06-01T06:59:43.490Z,17.50
2018-06-01T07:04:46.757Z,17.33
2018-06-01T07:09:50.026Z,16.50
2018-06-01T07:14:53.378Z,16.20
2018-06-01T07:19:57.435Z,15.63
2018-06-01T07:25:00.734Z,17.60
2018-06-01T07:30:03.995Z,19.03
2018-06-01T07:35:07.372Z,21.03
2018-06-01T07:40:10.646Z,23.73
2018-06-01T07:45:15.066Z,25.20
2018-06-01T07:50:19.078Z,26.63
2018-06-01T07:55:22.360Z,27.33
2018-06-01T08:00:26.103Z,27.17
2018-06-01T08:05:30.123Z,29.30
2018-06-01T08:10:33.427Z,34.20
2018-06-01T08:15:36.711Z,27.83
2018-06-01T08:20:39.981Z,26.80
2018-06-01T08:25:43.839Z,26.23
2018-06-01T08:30:47.862Z,23.40
2018-06-01T08:35:51.174Z,20.43
2018-06-01T08:40:54.444Z,18.67
2018-06-01T08:45:57.715Z,31.77
2018-06-01T08:51:01.767Z,43.00
2018-06-01T08:56:05.047Z,37.87
2018-06-01T09:01:08.307Z,46.57
2018-06-01T09:06:11.576Z,34.10
2018-06-01T09:11:15.619Z,29.90
2018-06-01T09:16:19.792Z,21.03
2018-06-01T09:21:23.999Z,26.10
2018-06-01T09:26:27.270Z,22.23
2018-06-01T09:31:31.291Z,23.17
2018-06-01T09:36:34.592Z,18.37
2018-06-01T09:41:38.792Z,13.07
2018-06-01T09:46:42.096Z,15.50
2018-06-01T09:51:45.347Z,21.90
2018-06-01T09:56:48.607Z,11.23
2018-06-01T10:01:51.871Z,13.77
2018-06-01T10:06:55.911Z,14.70
2018-06-01T10:11:59.456Z,10.67
2018-06-01T10:17:02.715Z,13.10
2018-06-01T10:22:05.985Z,8.80
2018-06-01T10:27:09.237Z,9.70
2018-06-01T10:32:13.299Z,15.60
2018-06-01T10:37:17.607Z,8.97
2018-06-01T10:42:20.850Z,7.33
2018-06-01T10:47:24.115Z,8.07
2018-06-01T10:52:28.166Z,6.00
2018-06-01T10:57:31.427Z,11.67
2018-06-01T11:02:35.570Z,5.57
2018-06-01T11:07:38.831Z,8.97
2018-06-01T11:12:42.082Z,7.60
2018-06-01T11:17:46.107Z,5.77
2018-06-01T11:22:49.358Z,5.13
2018-06-01T11:27:52.616Z,5.67
2018-06-01T11:32:55.864Z,5.73
2018-06-01T11:37:59.874Z,6.27
2018-06-01T11:43:03.895Z,5.00
2018-06-01T11:48:07.171Z,4.93
2018-06-01T11:53:10.511Z,5.27
2018-06-01T11:58:13.843Z,5.30
2018-06-01T12:03:17.108Z,7.03
2018-06-01T12:08:20.366Z,26.23
2018-06-01T12:13:23.639Z,19.23
2018-06-01T12:18:27.683Z,22.27
2018-06-01T12:23:31.723Z,17.07
2018-06-01T12:28:34.996Z,11.67
2018-06-01T12:33:39.031Z,11.43
2018-06-01T12:38:42.323Z,9.93
2018-06-01T12:43:45.586Z,15.40
2018-06-01T12:48:48.867Z,10.53
2018-06-01T12:53:52.143Z,13.83
2018-06-01T12:58:56.194Z,12.77
2018-06-01T13:03:59.463Z,11.27
2018-06-01T13:09:02.734Z,12.97
2018-06-01T13:14:05.999Z,19.27
2018-06-01T13:19:10.067Z,15.13
2018-06-01T13:24:13.336Z,21.33
2018-06-01T13:29:16.598Z,15.67
2018-06-01T13:34:19.893Z,29.67
2018-06-01T13:39:23.960Z,15.87
2018-06-01T13:44:27.220Z,14.07
2018-06-01T13:49:30.505Z,26.73
2018-06-01T13:54:33.767Z,27.63
2018-06-01T13:59:37.037Z,29.30
2018-06-01T14:04:40.299Z,21.63
2018-06-01T14:09:43.562Z,31.93
2018-06-01T14:14:46.843Z,18.70
2018-06-01T14:19:50.883Z,18.87
2018-06-01T14:24:54.165Z,22.07
2018-06-01T14:29:57.442Z,15.67
2018-06-01T14:35:00.872Z,29.17
2018-06-01T14:40:04.195Z,35.97
2018-06-01T14:45:08.272Z,15.93
2018-06-01T14:50:12.531Z,35.40
2018-06-01T14:55:15.829Z,22.13
2018-06-01T15:00:19.108Z,27.70
2018-06-01T15:05:22.382Z,32.73
2018-06-01T15:10:25.652Z,23.83
2018-06-01T15:15:28.931Z,36.80
2018-06-01T15:20:32.232Z,26.33
2018-06-01T15:25:36.269Z,23.00
2018-06-01T15:30:39.512Z,30.70
2018-06-01T15:35:42.766Z,23.77
2018-06-01T15:40:47.041Z,19.27
2018-06-01T15:45:51.027Z,20.17
2018-06-01T15:50:55.055Z,30.53
2018-06-01T15:55:59.089Z,21.00
2018-06-01T16:01:02.368Z,20.07
2018-06-01T16:06:05.623Z,30.10
2018-06-01T16:11:08.959Z,26.60
2018-06-01T16:16:12.259Z,39.93
2018-06-01T16:21:15.528Z,28.30
2018-06-01T16:26:19.659Z,34.57
2018-06-01T16:31:22.942Z,24.87
2018-06-01T16:36:26.203Z,36.40
2018-06-01T16:41:29.519Z,28.27
2018-06-01T16:46:32.819Z,33.60
2018-06-01T16:51:36.084Z,31.80
2018-06-01T16:56:40.130Z,36.43
2018-06-01T17:01:43.395Z,24.70
2018-06-01T17:06:46.653Z,38.13
2018-06-01T17:11:49.922Z,26.17
2018-06-01T17:16:53.173Z,40.47
2018-06-01T17:21:56.661Z,24.40
2018-06-01T17:27:00.071Z,29.40
2018-06-01T17:32:04.097Z,29.10
2018-06-01T17:37:08.724Z,26.57
2018-06-01T17:42:12.017Z,25.80
2018-06-01T17:47:15.278Z,20.70
2018-06-01T17:52:18.541Z,16.90
2018-06-01T17:57:21.808Z,27.90
2018-06-01T18:02:25.093Z,25.20
2018-06-01T18:07:28.362Z,17.63
2018-06-01T18:12:31.631Z,26.63
2018-06-01T18:17:34.917Z,13.70
2018-06-01T18:22:39.053Z,27.23
2018-06-01T18:27:43.056Z,18.00
2018-06-01T18:32:47.116Z,22.47
2018-06-01T18:37:50.376Z,17.60
2018-06-01T18:42:53.750Z,24.17
2018-06-01T18:47:57.012Z,19.17
2018-06-01T18:53:00.283Z,17.57
2018-06-01T18:58:03.597Z,16.33
2018-06-01T19:03:06.863Z,13.47
2018-06-01T19:08:10.210Z,20.43
2018-06-01T19:13:13.550Z,12.43
2018-06-01T19:18:17.591Z,15.77
2018-06-01T19:23:20.863Z,9.30
2018-06-01T19:28:24.975Z,11.07
2018-06-01T19:33:29.440Z,16.13
2018-06-01T19:38:32.699Z,16.53
2018-06-01T19:43:36.887Z,8.23
2018-06-01T19:48:40.140Z,8.07
2018-06-01T19:53:43.394Z,6.87
2018-06-01T19:58:46.678Z,8.63
2018-06-01T20:03:50.739Z,22.20
2018-06-01T20:08:54.035Z,11.50
2018-06-01T20:13:57.367Z,13.03
2018-06-01T20:19:00.730Z,15.10
2018-06-01T20:24:04.009Z,10.90
2018-06-01T20:29:07.281Z,11.53
2018-06-01T20:34:11.308Z,13.37
2018-06-01T20:39:15.331Z,15.70
2018-06-01T20:44:18.800Z,17.20
2018-06-01T20:49:22.190Z,18.13
2018-06-01T20:54:25.629Z,18.60
2018-06-01T20:59:28.908Z,20.27
2018-06-01T21:04:32.163Z,19.27
2018-06-01T21:09:35.428Z,22.23
2018-06-01T21:14:38.696Z,13.67
2018-06-01T21:19:41.987Z,22.23
2018-06-01T21:24:45.251Z,14.47
2018-06-01T21:29:48.515Z,16.53
2018-06-01T21:34:51.800Z,11.63
2018-06-01T21:39:55.067Z,11.23
2018-06-01T21:44:58.355Z,14.33
2018-06-01T21:50:02.389Z,11.40
2018-06-01T21:55:07.421Z,18.97
2018-06-01T22:00:10.683Z,19.00
2018-06-01T22:05:13.940Z,12.47
2018-06-01T22:10:17.199Z,16.60
2018-06-01T22:15:20.467Z,17.93
2018-06-01T22:20:25.446Z,15.73
2018-06-01T22:25:28.707Z,26.10
2018-06-01T22:30:31.997Z,13.03
2018-06-01T22:35:35.269Z,18.70
2018-06-01T22:40:38.527Z,17.60
2018-06-01T22:45:42.571Z,15.20
2018-06-01T22:50:45.859Z,15.57
2018-06-01T22:55:49.113Z,18.03
2018-06-01T23:00:52.384Z,21.07
2018-06-01T23:05:55.659Z,22.23
2018-06-01T23:10:58.926Z,17.33
2018-06-01T23:16:02.192Z,18.20
2018-06-01T23:21:08.727Z,19.77
2018-06-01T23:26:12.042Z,29.60
2018-06-01T23:31:15.308Z,29.70
2018-06-01T23:36:18.582Z,17.67
2018-06-01T23:41:21.823Z,24.00
2018-06-01T23:46:25.097Z,12.97
2018-06-01T23:51:29.115Z,22.63
2018-06-01T23:56:32.380Z,15.37
